createdAt,value
2022-12-01T00:02:44.386Z,17.75
2022-12-01T00:05:29.781Z,19.38
2022-12-01T00:08:15.186Z,18.65
2022-12-01T00:11:05.745Z,20.15
2022-12-01T00:13:51.081Z,18.95
2022-12-01T00:16:36.630Z,18.10
2022-12-01T00:19:25.406Z,18.17
2022-12-01T00:22:10.454Z,17.02
2022-12-01T00:24:55.868Z,18.90
2022-12-01T00:27:41.681Z,21.95
2022-12-01T00:30:27.366Z,19.42
2022-12-01T00:33:12.830Z,20.67
2022-12-01T00:35:59.597Z,21.45
2022-12-01T00:38:45.334Z,19.30
2022-12-01T00:41:30.581Z,19.38
2022-12-01T00:44:16.091Z,19.10
2022-12-01T00:47:01.440Z,22.77
2022-12-01T00:49:47.097Z,17.98
2022-12-01T00:52:32.677Z,20.80
2022-12-01T00:55:18.004Z,22.42
2022-12-01T00:58:04.380Z,18.23
2022-12-01T01:00:56.275Z,20.90
2022-12-01T01:03:41.407Z,20.77
2022-12-01T01:06:26.899Z,20.60
2022-12-01T01:09:13.325Z,18.58
2022-12-01T01:11:58.534Z,19.92
2022-12-01T01:14:44.637Z,21.63
2022-12-01T01:17:29.626Z,18.20
2022-12-01T01:20:15.166Z,20.02
2022-12-01T01:23:00.580Z,19.70
2022-12-01T01:25:45.852Z,20.80
2022-12-01T01:28:32.020Z,21.50
2022-12-01T01:31:20.533Z,20.33
2022-12-01T01:34:06.154Z,22.45
2022-12-01T01:36:51.728Z,19.40
2022-12-01T01:39:37.049Z,24.30
2022-12-01T01:42:22.573Z,20.60
2022-12-01T01:45:25.101Z,18.02
2022-12-01T01:48:13.000Z,18.73
2022-12-01T01:50:58.300Z,20.48
2022-12-01T01:53:46.658Z,20.23
2022-12-01T01:56:32.315Z,21.58
2022-12-01T01:59:23.967Z,21.05
2022-12-01T02:02:11.352Z,19.98
2022-12-01T02:05:02.560Z,23.88
2022-12-01T02:07:48.619Z,22.50
2022-12-01T02:11:04.617Z,24.77
2022-12-01T02:14:28.788Z,20.00
2022-12-01T02:17:30.446Z,17.60
2022-12-01T02:20:53.579Z,18.40
2022-12-01T02:23:41.400Z,17.75
2022-12-01T02:26:45.165Z,15.60
2022-12-01T02:30:18.814Z,16.50
2022-12-01T02:33:19.376Z,16.90
2022-12-01T02:36:17.274Z,18.27
2022-12-01T02:39:07.070Z,18.15
2022-12-01T02:42:03.681Z,17.95
2022-12-01T02:44:49.194Z,16.27
2022-12-01T02:47:36.381Z,18.98
2022-12-01T02:50:23.925Z,15.63
2022-12-01T02:53:12.837Z,19.70
2022-12-01T02:55:58.998Z,21.73
2022-12-01T02:58:44.330Z,19.67
2022-12-01T03:01:42.429Z,18.92
2022-12-01T03:04:33.546Z,19.80
2022-12-01T03:07:56.327Z,20.35
2022-12-01T03:10:48.591Z,17.73
2022-12-01T03:13:46.089Z,19.35
2022-12-01T03:16:31.509Z,18.27
2022-12-01T03:19:33.936Z,21.38
2022-12-01T03:22:28.423Z,23.98
2022-12-01T03:25:15.678Z,21.67
2022-12-01T03:31:13.270Z,24.20
2022-12-01T03:34:30.469Z,25.40
2022-12-01T03:37:31.684Z,22.55
2022-12-01T03:40:21.626Z,25.80
2022-12-01T03:43:11.642Z,21.52
2022-12-01T03:46:19.529Z,23.85
2022-12-01T03:49:05.661Z,26.10
2022-12-01T03:52:32.391Z,25.88
2022-12-01T03:55:30.603Z,28.23
2022-12-01T03:58:21.155Z,26.25
2022-12-01T04:01:07.827Z,27.90
2022-12-01T04:03:52.722Z,26.77
2022-12-01T04:06:40.257Z,28.85
2022-12-01T04:09:25.811Z,23.25
2022-12-01T04:12:29.402Z,26.25
2022-12-01T04:15:15.123Z,25.13
2022-12-01T04:18:00.437Z,22.67
2022-12-01T04:20:46.874Z,25.55
2022-12-01T04:23:51.670Z,24.20
2022-12-01T04:26:38.080Z,23.13
2022-12-01T04:29:23.278Z,27.60
2022-12-01T04:32:09.005Z,29.83
2022-12-01T04:34:54.360Z,26.23
2022-12-01T04:37:40.217Z,27.90
2022-12-01T04:40:25.761Z,25.70
2022-12-01T04:43:10.984Z,26.08
2022-12-01T04:45:56.341Z,22.33
2022-12-01T04:48:41.642Z,27.80
2022-12-01T04:51:27.020Z,28.23
2022-12-01T04:54:12.723Z,26.25
2022-12-01T04:56:58.073Z,30.58
2022-12-01T04:59:43.523Z,28.73
2022-12-01T05:02:28.835Z,30.30
2022-12-01T05:05:14.447Z,30.83
2022-12-01T05:08:00.041Z,26.63
2022-12-01T05:10:45.266Z,26.58
2022-12-01T05:13:30.761Z,27.60
2022-12-01T05:16:22.406Z,31.15
2022-12-01T05:19:26.395Z,26.63
2022-12-01T05:22:11.708Z,28.70
2022-12-01T05:24:57.153Z,30.92
2022-12-01T05:27:42.504Z,29.15
2022-12-01T05:30:28.871Z,28.10
2022-12-01T05:33:14.501Z,28.75
2022-12-01T05:35:59.900Z,33.47
2022-12-01T05:38:45.269Z,30.45
2022-12-01T05:41:30.819Z,29.13
2022-12-01T05:44:16.272Z,28.25
2022-12-01T05:47:01.800Z,29.73
2022-12-01T05:49:47.530Z,28.23
2022-12-01T05:52:35.117Z,30.73
2022-12-01T05:55:20.290Z,30.23
2022-12-01T05:58:06.471Z,31.13
2022-12-01T06:00:51.641Z,28.63
2022-12-01T06:03:37.177Z,34.30
2022-12-01T06:06:22.767Z,31.60
2022-12-01T06:09:08.403Z,28.58
2022-12-01T06:11:53.652Z,29.00
2022-12-01T06:14:39.161Z,28.85
2022-12-01T06:17:24.590Z,28.35
2022-12-01T06:20:10.813Z,27.30
2022-12-01T06:22:55.860Z,30.45
2022-12-01T06:25:41.233Z,29.45
2022-12-01T06:28:26.601Z,26.17
2022-12-01T06:31:13.097Z,27.30
2022-12-01T06:33:58.477Z,31.48
2022-12-01T06:36:43.788Z,27.23
2022-12-01T06:39:29.327Z,28.58
2022-12-01T06:42:15.286Z,26.70
2022-12-01T06:45:00.640Z,31.50
2022-12-01T06:47:48.297Z,30.17
2022-12-01T06:50:33.362Z,30.98
2022-12-01T06:53:18.637Z,29.67
2022-12-01T06:56:05.182Z,28.23
2022-12-01T06:58:50.779Z,25.42
2022-12-01T07:01:36.797Z,34.75
2022-12-01T07:04:21.918Z,28.38
2022-12-01T07:07:07.626Z,30.00
2022-12-01T07:09:52.910Z,31.27
2022-12-01T07:12:38.921Z,30.63
2022-12-01T07:15:24.451Z,27.90
2022-12-01T07:18:09.517Z,29.58
2022-12-01T07:20:59.376Z,27.90
2022-12-01T07:23:44.545Z,31.80
2022-12-01T07:26:29.747Z,31.00
2022-12-01T07:29:15.365Z,29.63
2022-12-01T07:32:00.538Z,33.47
2022-12-01T07:34:45.916Z,36.72
2022-12-01T07:37:31.313Z,29.13
2022-12-01T07:40:16.610Z,31.27
2022-12-01T07:43:01.997Z,32.20
2022-12-01T07:45:47.462Z,30.35
2022-12-01T07:48:32.827Z,31.42
2022-12-01T07:51:18.559Z,27.92
2022-12-01T07:54:06.282Z,28.02
2022-12-01T07:56:51.760Z,29.30
2022-12-01T07:59:37.218Z,27.67
2022-12-01T08:02:22.535Z,29.85
2022-12-01T08:05:08.161Z,28.17
2022-12-01T08:07:53.929Z,28.25
2022-12-01T08:10:39.471Z,27.88
2022-12-01T08:13:24.911Z,29.80
2022-12-01T08:16:12.932Z,28.23
2022-12-01T08:18:58.468Z,28.30
2022-12-01T08:21:43.894Z,29.35
2022-12-01T08:24:29.327Z,26.55
2022-12-01T08:27:14.806Z,24.90
2022-12-01T08:30:00.382Z,23.65
2022-12-01T08:32:45.533Z,27.67
2022-12-01T08:35:31.054Z,27.58
2022-12-01T08:38:16.489Z,27.77
2022-12-01T08:41:07.842Z,28.42
2022-12-01T08:43:58.346Z,27.55
2022-12-01T08:46:44.323Z,26.35
2022-12-01T08:49:29.517Z,30.25
2022-12-01T08:52:14.876Z,27.67
2022-12-01T08:55:00.692Z,26.98
2022-12-01T08:57:46.025Z,25.55
2022-12-01T09:00:31.398Z,28.23
2022-12-01T09:03:16.852Z,28.75
2022-12-01T09:06:07.832Z,33.35
2022-12-01T09:08:53.194Z,33.38
2022-12-01T09:11:38.861Z,30.63
2022-12-01T09:14:24.443Z,33.85
2022-12-01T09:17:09.573Z,29.83
2022-12-01T09:19:55.037Z,29.88
2022-12-01T09:22:40.417Z,34.92
2022-12-01T09:25:25.822Z,31.60
2022-12-01T09:28:11.336Z,33.13
2022-12-01T09:30:57.048Z,31.05
2022-12-01T09:33:42.030Z,38.63
2022-12-01T09:36:29.682Z,32.05
2022-12-01T09:39:17.834Z,32.20
2022-12-01T09:42:09.365Z,35.05
2022-12-01T09:44:57.120Z,31.27
2022-12-01T09:47:46.579Z,34.22
2022-12-01T09:50:32.628Z,35.90
2022-12-01T09:53:26.235Z,34.60
2022-12-01T09:56:24.829Z,34.65
2022-12-01T09:59:17.810Z,42.38
2022-12-01T10:02:13.196Z,34.72
2022-12-01T10:05:01.200Z,36.08
2022-12-01T10:08:00.063Z,34.78
2022-12-01T10:10:48.547Z,37.05
2022-12-01T10:13:34.123Z,41.33
2022-12-01T10:16:28.699Z,32.65
2022-12-01T10:19:26.018Z,38.28
2022-12-01T10:22:33.150Z,31.95
2022-12-01T10:25:23.076Z,37.65
2022-12-01T10:28:39.058Z,34.30
2022-12-01T10:31:34.453Z,35.83
2022-12-01T10:34:21.747Z,35.78
2022-12-01T10:37:17.121Z,33.70
2022-12-01T10:40:02.481Z,40.38
2022-12-01T10:42:50.059Z,37.63
2022-12-01T10:45:40.490Z,36.67
2022-12-01T10:48:26.161Z,38.13
2022-12-01T10:51:16.796Z,31.83
2022-12-01T10:54:11.542Z,35.25
2022-12-01T10:56:57.904Z,36.65
2022-12-01T11:00:06.810Z,37.72
2022-12-01T11:02:52.465Z,34.78
2022-12-01T11:05:42.161Z,37.42
2022-12-01T11:08:45.281Z,32.42
2022-12-01T11:11:40.592Z,30.25
2022-12-01T11:14:40.919Z,33.60
2022-12-01T11:17:28.628Z,34.55
2022-12-01T11:20:30.321Z,37.47
2022-12-01T11:23:18.454Z,32.65
2022-12-01T11:26:06.285Z,35.88
2022-12-01T11:28:57.738Z,33.72
2022-12-01T11:31:47.746Z,36.83
2022-12-01T11:34:34.328Z,32.80
2022-12-01T11:37:22.142Z,36.47
2022-12-01T11:40:21.151Z,36.17
2022-12-01T11:43:07.206Z,36.67
2022-12-01T11:45:54.374Z,36.53
2022-12-01T11:48:39.949Z,34.53
2022-12-01T11:51:37.072Z,36.72
2022-12-01T11:54:25.890Z,39.85
2022-12-01T11:57:33.081Z,40.83
2022-12-01T12:00:34.302Z,33.92
2022-12-01T12:03:35.992Z,36.55
2022-12-01T12:06:45.674Z,59.45
2022-12-01T12:10:05.703Z,38.95
2022-12-01T12:12:58.427Z,36.15
2022-12-01T12:15:58.494Z,39.35
2022-12-01T12:19:11.989Z,33.03
2022-12-01T12:22:27.982Z,35.55
2022-12-01T12:25:45.768Z,38.17
2022-12-01T12:28:43.270Z,33.80
2022-12-01T12:32:03.307Z,38.92
2022-12-01T12:35:03.390Z,34.50
2022-12-01T12:38:09.747Z,32.38
2022-12-01T12:41:31.398Z,36.22
2022-12-01T12:44:40.101Z,40.65
2022-12-01T12:48:05.610Z,36.28
2022-12-01T12:51:01.468Z,33.42
2022-12-01T12:54:16.912Z,35.55
2022-12-01T12:57:07.050Z,40.40
2022-12-01T13:00:16.676Z,34.00
2022-12-01T13:03:23.501Z,35.05
2022-12-01T13:06:11.259Z,40.15
2022-12-01T13:09:23.341Z,33.05
2022-12-01T13:12:43.117Z,30.07
2022-12-01T13:15:30.596Z,27.13
2022-12-01T13:18:42.358Z,32.50
2022-12-01T13:21:34.843Z,29.80
2022-12-01T13:24:23.914Z,26.98
2022-12-01T13:27:19.573Z,36.75
2022-12-01T13:30:16.079Z,35.50
2022-12-01T13:33:06.059Z,31.67
2022-12-01T13:36:22.524Z,33.10
2022-12-01T13:39:16.060Z,34.75
2022-12-01T13:42:26.130Z,26.33
2022-12-01T13:45:19.137Z,28.17
2022-12-01T13:48:06.151Z,26.23
2022-12-01T13:51:00.208Z,25.63
2022-12-01T13:54:05.892Z,27.63
2022-12-01T13:57:03.712Z,30.90
2022-12-01T13:59:58.186Z,30.98
2022-12-01T14:02:43.732Z,27.75
2022-12-01T14:05:45.036Z,26.23
2022-12-01T14:08:33.811Z,25.17
2022-12-01T14:11:23.584Z,30.08
2022-12-01T14:14:09.083Z,25.95
2022-12-01T14:16:58.495Z,27.27
2022-12-01T14:19:52.601Z,26.30
2022-12-01T14:22:44.106Z,26.17
2022-12-01T14:25:30.745Z,25.23
2022-12-01T14:28:17.455Z,29.05
2022-12-01T14:31:03.920Z,25.92
2022-12-01T14:33:57.915Z,31.08
2022-12-01T14:36:49.454Z,32.08
2022-12-01T14:39:43.352Z,23.13
2022-12-01T14:42:57.783Z,27.05
2022-12-01T14:46:06.722Z,30.65
2022-12-01T14:48:55.034Z,28.38
2022-12-01T14:51:44.342Z,32.33
2022-12-01T14:54:33.588Z,29.33
2022-12-01T14:57:24.631Z,27.67
2022-12-01T15:00:24.315Z,36.72
2022-12-01T15:03:14.049Z,33.03
2022-12-01T15:05:59.492Z,29.35
2022-12-01T15:09:04.210Z,30.33
2022-12-01T15:11:57.421Z,31.63
2022-12-01T15:14:48.592Z,29.55
2022-12-01T15:17:37.038Z,32.28
2022-12-01T15:20:34.792Z,29.25
2022-12-01T15:23:20.062Z,25.05
2022-12-01T15:26:05.283Z,27.70
2022-12-01T15:29:03.637Z,27.17
2022-12-01T15:31:52.264Z,23.77
2022-12-01T15:34:41.721Z,28.65
2022-12-01T15:37:28.388Z,31.05
2022-12-01T15:43:28.036Z,26.70
2022-12-01T15:46:25.941Z,20.60
2022-12-01T15:49:29.728Z,26.80
2022-12-01T15:52:16.216Z,25.98
2022-12-01T15:55:04.375Z,28.25
2022-12-01T15:57:49.815Z,25.83
2022-12-01T16:00:35.709Z,30.45
2022-12-01T16:03:21.107Z,33.55
2022-12-01T16:06:12.410Z,25.27
2022-12-01T16:09:01.234Z,21.48
2022-12-01T16:12:06.876Z,28.10
2022-12-01T16:15:01.416Z,27.77
2022-12-01T16:17:52.697Z,24.40
2022-12-01T16:20:42.380Z,25.75
2022-12-01T16:23:27.696Z,26.70
2022-12-01T16:26:14.016Z,28.70
2022-12-01T16:28:59.351Z,31.13
2022-12-01T16:32:12.533Z,30.00
2022-12-01T16:34:53.754Z,27.88
2022-12-01T16:37:38.875Z,29.52
2022-12-01T16:40:25.121Z,25.60
2022-12-01T16:43:18.349Z,29.83
2022-12-01T16:46:06.732Z,24.33
2022-12-01T16:48:51.910Z,25.98
2022-12-01T16:51:54.697Z,25.00
2022-12-01T16:54:40.962Z,24.63
2022-12-01T16:57:26.085Z,24.05
2022-12-01T17:00:12.017Z,30.45
2022-12-01T17:02:58.393Z,25.88
2022-12-01T17:05:43.934Z,27.98
2022-12-01T17:08:29.259Z,24.52
2022-12-01T17:11:14.880Z,22.60
2022-12-01T17:14:00.426Z,23.77
2022-12-01T17:16:45.831Z,29.60
2022-12-01T17:19:31.272Z,23.35
2022-12-01T17:22:16.624Z,29.13
2022-12-01T17:25:02.511Z,22.92
2022-12-01T17:27:47.712Z,26.63
2022-12-01T17:30:33.723Z,24.88
2022-12-01T17:33:19.173Z,25.95
2022-12-01T17:36:13.349Z,30.63
2022-12-01T17:38:58.818Z,27.20
2022-12-01T17:41:43.958Z,26.98
2022-12-01T17:44:29.464Z,30.00
2022-12-01T17:47:14.736Z,30.02
2022-12-01T17:50:00.283Z,25.75
2022-12-01T17:52:45.622Z,30.08
2022-12-01T17:55:30.974Z,27.50
2022-12-01T17:58:21.198Z,32.22
2022-12-01T18:01:12.155Z,23.30
2022-12-01T18:03:58.300Z,26.17
2022-12-01T18:06:44.247Z,25.00
2022-12-01T18:09:31.334Z,31.58
2022-12-01T18:12:16.690Z,24.33
2022-12-01T18:15:02.457Z,24.70
2022-12-01T18:17:47.553Z,26.60
2022-12-01T18:20:33.173Z,24.70
2022-12-01T18:23:18.445Z,24.38
2022-12-01T18:26:08.659Z,32.67
2022-12-01T18:29:04.811Z,27.90
2022-12-01T18:31:50.015Z,26.38
2022-12-01T18:34:35.647Z,25.55
2022-12-01T18:37:20.772Z,20.60
2022-12-01T18:40:07.453Z,23.02
2022-12-01T18:42:52.756Z,25.10
2022-12-01T18:45:40.007Z,22.77
2022-12-01T18:48:25.818Z,25.35
2022-12-01T18:51:11.252Z,23.20
2022-12-01T18:53:58.254Z,25.27
2022-12-01T18:56:43.735Z,26.98
2022-12-01T18:59:29.469Z,21.67
2022-12-01T19:02:14.450Z,23.85
2022-12-01T19:05:00.029Z,23.15
2022-12-01T19:07:45.287Z,18.88
2022-12-01T19:10:31.898Z,20.92
2022-12-01T19:13:17.306Z,25.08
2022-12-01T19:16:08.556Z,22.33
2022-12-01T19:18:53.624Z,18.98
2022-12-01T19:21:39.021Z,24.55
2022-12-01T19:24:24.250Z,22.10
2022-12-01T19:27:09.572Z,20.02
2022-12-01T19:29:55.009Z,20.35
2022-12-01T19:32:43.406Z,19.67
2022-12-01T19:35:28.525Z,20.38
2022-12-01T19:38:13.898Z,18.00
2022-12-01T19:40:59.574Z,24.65
2022-12-01T19:43:44.685Z,19.38
2022-12-01T19:46:30.245Z,21.90
2022-12-01T19:49:15.767Z,20.48
2022-12-01T19:52:01.050Z,18.02
2022-12-01T19:54:46.578Z,22.30
2022-12-01T19:57:31.921Z,19.35
2022-12-01T20:00:17.890Z,20.65
2022-12-01T20:03:03.821Z,16.30
2022-12-01T20:05:49.206Z,19.10
2022-12-01T20:08:36.188Z,18.63
2022-12-01T20:11:22.060Z,19.75
2022-12-01T20:14:07.755Z,19.52
2022-12-01T20:16:55.681Z,21.73
2022-12-01T20:19:41.301Z,20.25
2022-12-01T20:22:30.285Z,21.00
2022-12-01T20:25:15.685Z,22.35
2022-12-01T20:28:01.776Z,23.65
2022-12-01T20:30:47.007Z,24.52
2022-12-01T20:33:32.353Z,24.33
2022-12-01T20:36:17.818Z,22.67
2022-12-01T20:39:04.516Z,21.38
2022-12-01T20:41:50.064Z,22.55
2022-12-01T20:44:35.611Z,23.35
2022-12-01T20:47:21.132Z,27.90
2022-12-01T20:50:06.689Z,23.27
2022-12-01T20:52:52.037Z,20.90
2022-12-01T20:55:38.275Z,23.70
2022-12-01T20:58:23.423Z,20.75
2022-12-01T21:01:10.053Z,20.00
2022-12-01T21:03:55.465Z,23.40
2022-12-01T21:06:41.037Z,26.08
2022-12-01T21:09:26.579Z,25.65
2022-12-01T21:12:33.054Z,24.58
2022-12-01T21:15:28.573Z,21.75
2022-12-01T21:18:29.368Z,22.27
2022-12-01T21:21:26.437Z,24.67
2022-12-01T21:24:15.509Z,25.17
2022-12-01T21:27:05.781Z,23.08
2022-12-01T21:29:50.907Z,23.88
2022-12-01T21:32:42.539Z,23.00
2022-12-01T21:35:29.209Z,24.02
2022-12-01T21:38:18.967Z,22.30
2022-12-01T21:41:26.473Z,23.95
2022-12-01T21:44:22.241Z,21.48
2022-12-01T21:47:31.100Z,23.23
2022-12-01T21:50:27.192Z,20.50
2022-12-01T21:53:15.698Z,23.50
2022-12-01T21:56:01.817Z,20.10
2022-12-01T21:58:47.281Z,22.85
2022-12-01T22:01:34.107Z,23.27
2022-12-01T22:04:21.704Z,22.75
2022-12-01T22:07:08.782Z,20.48
2022-12-01T22:09:54.341Z,19.83
2022-12-01T22:12:39.421Z,19.00
2022-12-01T22:15:41.146Z,21.67
2022-12-01T22:18:36.689Z,18.55
2022-12-01T22:21:21.818Z,22.20
2022-12-01T22:24:10.225Z,20.95
2022-12-01T22:27:03.252Z,21.90
2022-12-01T22:32:39.101Z,23.23
2022-12-01T22:35:43.171Z,23.60
2022-12-01T22:38:36.005Z,18.42
2022-12-01T22:41:21.939Z,21.98
2022-12-01T22:44:12.286Z,20.80
2022-12-01T22:47:01.971Z,20.35
2022-12-01T22:49:47.363Z,22.50
2022-12-01T22:52:34.158Z,19.38
2022-12-01T22:55:20.001Z,22.70
2022-12-01T22:58:30.985Z,29.05
2022-12-01T23:01:27.808Z,27.27
2022-12-01T23:04:28.635Z,24.42
2022-12-01T23:07:26.401Z,25.30
2022-12-01T23:10:14.680Z,23.30
2022-12-01T23:13:08.701Z,24.52
2022-12-01T23:15:54.183Z,23.42
2022-12-01T23:18:39.527Z,22.42
2022-12-01T23:21:24.828Z,22.30
2022-12-01T23:24:14.355Z,22.50
2022-12-01T23:26:59.549Z,26.33
2022-12-01T23:29:45.096Z,26.23
2022-12-01T23:32:30.454Z,22.60
2022-12-01T23:35:17.801Z,25.50
2022-12-01T23:38:03.153Z,24.63
2022-12-01T23:40:49.979Z,25.90
2022-12-01T23:43:40.005Z,26.42
2022-12-01T23:46:28.217Z,21.88
2022-12-01T23:49:18.869Z,22.88
2022-12-01T23:52:05.965Z,15.52
2022-12-01T23:54:51.477Z,25.55
2022-12-01T23:57:37.462Z,19.77
